Hereford, South Dakota
Current Conditions -  °F | °C
As of 7:58 PM on Friday 21 Nov 2014 (Local Time) from KRCA Reporting Station
Clear Clear  
Wind Chill: 29°   Ceiling: Unl
Heat Index: 35°   Visibility: 10mi
Dew Point: 23°   Wind: 7mph
Humidity: 64%   Direction: 250°WSW
Pressure: 29.81"   Gusts: NA
Location:  44.4145°N, 103.17°W
Report Text: KRCA 220258Z AUTO 25006KT 10SM CLR 01/M05 A2981 RMK AO2 SLP123 T00141048 58005 $
Loading
Personal Weather Stations






























Interactive Weather Map New forecast layout! Learn more

10-Day Weather Forecast

Advertisements
Track Severe Weather on mobile